Time;durP1;ratioP1;P1;durP2;ratioP2;P2;SDS_P1;SDS_P2;PMS_P1;PMS_P2;Temp;Humidity;BMP_temperature;BMP_pressure;BME280_temperature;BME280_humidity;BME280_pressure;Samples;Min_cycle;Max_cycle;Signal;HPM_P1;HPM_P2
2023/01/26 00:01:15;;;;;;;30.48;14.75;;;;;;;2.00;82.04;98730.13;5051346;28;20052;-81
2023/01/26 00:03:42;;;;;;;26.90;13.65;;;;;;;1.74;83.11;98722.81;5050915;28;20107;-81
2023/01/26 00:06:12;;;;;;;28.45;13.30;;;;;;;1.81;83.71;98718.75;5051447;28;20037;-81
2023/01/26 00:08:46;;;;;;;27.88;13.50;;;;;;;1.80;82.76;98719.72;5050617;28;20056;-81
2023/01/26 00:11:15;;;;;;;26.77;12.93;;;;;;;1.82;82.42;98725.56;5050511;28;20392;-81
2023/01/26 00:13:41;;;;;;;25.58;12.27;;;;;;;1.83;82.37;98705.69;5050182;28;20044;-81
2023/01/26 00:16:13;;;;;;;29.85;12.95;;;;;;;1.75;81.90;98703.75;5051225;28;20379;-81
2023/01/26 00:18:40;;;;;;;27.65;12.43;;;;;;;1.86;82.55;98702.84;5049606;28;20047;-81
2023/01/26 00:21:08;;;;;;;25.33;11.43;;;;;;;1.98;82.72;98698.38;5048261;28;20507;-81
2023/01/26 00:23:34;;;;;;;25.70;12.60;;;;;;;2.10;82.53;98705.94;5050634;28;20033;-80
2023/01/26 00:26:01;;;;;;;27.73;12.15;;;;;;;2.11;82.09;98691.22;5049951;28;20029;-81
2023/01/26 00:28:27;;;;;;;26.77;11.75;;;;;;;2.11;81.63;98699.00;5032690;28;20426;-81
2023/01/26 00:30:53;;;;;;;26.40;13.02;;;;;;;1.97;81.37;98689.00;5050323;28;20033;-80
2023/01/26 00:33:18;;;;;;;28.98;13.43;;;;;;;1.91;81.98;98684.34;5050212;28;20108;-81
2023/01/26 00:35:52;;;;;;;29.13;13.10;;;;;;;2.02;82.62;98687.66;5050535;28;20052;-81
2023/01/26 00:38:17;;;;;;;26.25;13.00;;;;;;;1.99;81.76;98694.88;5048211;28;20039;-81
2023/01/26 00:40:43;;;;;;;26.75;12.65;;;;;;;2.02;81.92;98673.91;5050343;28;20600;-81
2023/01/26 00:43:08;;;;;;;27.45;13.05;;;;;;;2.13;82.28;98668.63;5050693;28;20553;-81
2023/01/26 00:45:34;;;;;;;29.85;13.23;;;;;;;2.15;82.04;98651.19;5050270;28;20055;-81
2023/01/26 00:48:00;;;;;;;32.20;13.80;;;;;;;2.07;81.54;98661.38;5050152;28;20408;-80
2023/01/26 00:50:26;;;;;;;26.40;12.02;;;;;;;2.06;81.95;98652.00;5049976;28;20112;-80
2023/01/26 00:52:52;;;;;;;26.75;13.02;;;;;;;2.14;82.12;98654.72;5050761;28;20052;-80
2023/01/26 00:55:18;;;;;;;25.92;12.55;;;;;;;2.14;82.09;98647.78;5049716;28;20049;-81
2023/01/26 00:57:44;;;;;;;30.17;12.88;;;;;;;2.11;81.57;98640.28;5050497;28;20527;-80
2023/01/26 01:00:15;;;;;;;29.00;13.43;;;;;;;2.10;81.69;98622.31;5049726;28;20107;-81
2023/01/26 01:02:42;;;;;;;22.63;11.35;;;;;;;2.03;81.97;98629.78;5032001;28;20072;-81
2023/01/26 01:05:08;;;;;;;28.55;12.48;;;;;;;1.93;82.30;98618.59;5050451;28;20037;-81
2023/01/26 01:07:34;;;;;;;25.05;11.27;;;;;;;1.93;82.41;98628.94;5049988;28;20572;-81
2023/01/26 01:10:00;;;;;;;26.52;12.40;;;;;;;1.82;82.50;98624.69;5049806;28;20047;-81
2023/01/26 01:12:26;;;;;;;26.05;11.52;;;;;;;1.74;82.59;98626.28;5048991;28;20091;-81
2023/01/26 01:14:51;;;;;;;27.23;12.48;;;;;;;1.74;83.29;98619.38;5049681;28;20037;-81
2023/01/26 01:17:17;;;;;;;30.90;11.43;;;;;;;1.73;83.43;98617.69;5048764;28;20033;-81
2023/01/26 01:19:43;;;;;;;28.80;12.30;;;;;;;1.55;83.60;98617.50;5047327;28;20036;-81
2023/01/26 01:22:08;;;;;;;28.50;12.75;;;;;;;1.37;84.33;98615.63;5050357;28;20029;-81
2023/01/26 01:24:34;;;;;;;28.05;11.73;;;;;;;1.33;84.96;98625.44;5049337;28;20037;-81
2023/01/26 01:27:00;;;;;;;27.60;12.40;;;;;;;1.32;85.38;98622.03;5049745;28;20036;-80
2023/01/26 01:29:26;;;;;;;23.48;11.05;;;;;;;1.37;85.31;98624.22;5048931;28;20029;-81
2023/01/26 01:31:51;;;;;;;27.08;12.27;;;;;;;1.48;85.31;98618.16;5048368;28;20071;-80
2023/01/26 01:34:17;;;;;;;29.20;13.00;;;;;;;1.35;85.22;98620.94;5030402;28;20056;-81
2023/01/26 01:36:42;;;;;;;28.83;12.60;;;;;;;1.17;86.05;98625.88;5031186;28;20514;-81
2023/01/26 01:39:08;;;;;;;30.35;12.23;;;;;;;1.14;86.35;98618.41;5049221;28;20037;-81
2023/01/26 01:41:33;;;;;;;27.48;13.15;;;;;;;0.98;86.64;98615.44;5049545;28;20063;-81
2023/01/26 01:44:23;;;;;;;31.67;12.95;;;;;;;0.97;87.00;98619.78;5049659;28;20039;-81
2023/01/26 01:47:09;;;;;;;33.70;11.75;;;;;;;0.96;86.90;98618.16;5048258;28;20045;-81
2023/01/26 01:49:48;;;;;;;25.50;10.88;;;;;;;1.19;86.74;98620.56;5048811;28;20039;-81
2023/01/26 01:52:30;;;;;;;20.77;9.90;;;;;;;1.14;86.36;98613.22;5048769;28;20036;-81
2023/01/26 01:55:07;;;;;;;31.83;12.63;;;;;;;1.19;86.44;98618.00;5047238;28;20459;-81
2023/01/26 01:57:46;;;;;;;24.77;11.30;;;;;;;1.13;86.53;98616.75;5048920;28;20589;-80
2023/01/26 02:00:16;;;;;;;22.60;10.43;;;;;;;1.23;86.76;98607.28;5048031;28;20045;-80
2023/01/26 02:06:13;;;;;;;26.70;12.25;;;;;;;0.99;86.95;98604.16;5046415;28;20039;-80
2023/01/26 02:08:41;;;;;;;29.92;12.05;;;;;;;1.09;87.76;98601.63;5047705;28;20105;-81
2023/01/26 02:11:14;;;;;;;19.17;8.57;;;;;;;1.20;87.41;98589.47;5047286;28;20032;-80
2023/01/26 02:13:43;;;;;;;19.35;9.18;;;;;;;1.27;86.40;98598.34;5048634;28;20072;-81
2023/01/26 02:16:09;;;;;;;23.73;10.20;;;;;;;1.45;86.38;98603.72;5047597;28;20504;-81
2023/01/26 02:18:35;;;;;;;19.50;9.20;;;;;;;1.55;85.74;98607.16;5048735;28;20435;-81
2023/01/26 02:21:08;;;;;;;18.13;8.98;;;;;;;1.60;85.17;98599.00;5045568;28;20033;-81
2023/01/26 02:24:10;;;;;;;18.08;8.60;;;;;;;1.67;84.47;98602.72;5048460;28;20155;-80
2023/01/26 02:26:37;;;;;;;20.27;9.10;;;;;;;1.63;83.81;98606.53;5047180;28;20033;-81
2023/01/26 02:29:09;;;;;;;18.83;8.00;;;;;;;1.63;83.44;98596.19;5048660;28;20037;-81
2023/01/26 02:31:36;;;;;;;17.42;7.68;;;;;;;1.53;83.67;98590.97;5048499;28;20067;-81
2023/01/26 02:34:02;;;;;;;19.75;8.45;;;;;;;1.65;83.88;98583.94;5047692;28;20435;-81
2023/01/26 02:36:30;;;;;;;19.23;8.75;;;;;;;1.75;83.56;98584.78;5048223;28;20039;-80
2023/01/26 02:39:22;;;;;;;20.98;9.07;;;;;;;1.58;83.06;98577.66;5047027;28;20045;-80
2023/01/26 02:44:38;;;;;;;17.35;7.90;;;;;;;1.48;83.61;98576.78;5047880;28;20040;-81
2023/01/26 02:47:16;;;;;;;18.92;8.00;;;;;;;1.57;83.84;98576.03;5047848;28;20376;-81
2023/01/26 02:49:49;;;;;;;15.82;7.97;;;;;;;1.63;83.11;98572.91;5048320;28;20060;-81
2023/01/26 02:52:22;;;;;;;15.27;7.78;;;;;;;1.68;82.96;98570.75;5048029;28;20835;-80
2023/01/26 02:57:33;;;;;;;16.20;7.38;;;;;;;1.38;82.37;98557.81;5047514;28;20060;-81
2023/01/26 03:00:00;;;;;;;16.20;7.75;;;;;;;1.44;82.48;98562.47;5047979;28;20029;-81
2023/01/26 03:02:25;;;;;;;16.17;8.77;;;;;;;1.50;82.35;98569.72;5047845;28;20045;-80
2023/01/26 03:04:51;;;;;;;15.82;8.48;;;;;;;1.52;82.53;98558.31;5048421;28;20090;-80
2023/01/26 03:07:16;;;;;;;18.48;8.80;;;;;;;1.44;82.35;98557.31;5030764;28;20048;-80
2023/01/26 03:09:42;;;;;;;19.55;8.52;;;;;;;1.27;83.15;98544.06;5051711;28;20029;-80
2023/01/26 03:12:07;;;;;;;19.55;8.27;;;;;;;1.34;84.04;98546.94;5052252;28;20033;-80
2023/01/26 03:14:33;;;;;;;18.75;9.13;;;;;;;1.25;84.53;98551.13;5034502;28;20044;-80
2023/01/26 03:16:58;;;;;;;19.92;8.93;;;;;;;1.10;85.54;98536.91;5051750;28;20068;-81
2023/01/26 03:27:47;;;;;;;17.60;8.30;;;;;;;1.40;84.56;98551.59;5050659;28;20440;-81
2023/01/26 03:30:16;;;;;;;20.60;9.18;;;;;;;1.48;84.46;98540.59;5050904;28;20029;-81
2023/01/26 03:32:42;;;;;;;19.67;8.85;;;;;;;1.60;84.01;98539.53;5051536;28;20412;-80
2023/01/26 03:35:13;;;;;;;17.83;8.73;;;;;;;1.70;83.54;98540.41;5051711;28;20094;-81
2023/01/26 03:37:43;;;;;;;18.10;8.75;;;;;;;1.74;83.35;98541.78;5051984;28;20669;-81
2023/01/26 03:56:53;;;;;;;22.27;9.27;;;;;;;1.42;82.36;98521.25;4986914;28;20036;-81
2023/01/26 03:59:36;;;;;;;18.00;8.68;;;;;;;1.53;82.82;98530.69;5015628;28;20056;-80
2023/01/26 04:10:18;;;;;;;20.55;8.73;;;;;;;1.63;83.11;98528.13;5050728;28;20354;-81
2023/01/26 04:12:43;;;;;;;21.20;8.85;;;;;;;1.66;83.03;98520.91;5033114;28;20040;-80
2023/01/26 04:23:22;;;;;;;25.23;10.43;;;;;;;0.95;85.12;98522.69;5050041;28;20082;-81
2023/01/26 04:25:48;;;;;;;25.17;9.73;;;;;;;1.07;85.36;98526.81;5051015;28;20045;-81
2023/01/26 04:28:13;;;;;;;19.45;9.63;;;;;;;1.03;84.98;98509.97;5050185;28;20447;-81
2023/01/26 04:30:39;;;;;;;21.38;10.02;;;;;;;0.99;85.55;98524.09;5050235;28;20036;-81
2023/01/26 04:33:04;;;;;;;23.23;9.27;;;;;;;1.11;85.39;98517.88;5050517;28;20037;-81
2023/01/26 04:35:30;;;;;;;23.63;9.88;;;;;;;1.25;85.38;98520.09;5050779;28;20052;-81
2023/01/26 04:37:55;;;;;;;19.02;9.57;;;;;;;1.27;85.34;98532.91;5049840;28;20071;-81
2023/01/26 04:40:21;;;;;;;24.88;10.23;;;;;;;1.17;85.55;98525.13;5047180;28;20116;-81
2023/01/26 04:42:46;;;;;;;23.77;10.40;;;;;;;0.98;85.63;98517.28;5050109;28;20120;-81
2023/01/26 04:45:12;;;;;;;23.13;10.93;;;;;;;1.01;85.67;98523.00;5050527;28;20033;-81
2023/01/26 04:47:37;;;;;;;23.90;10.15;;;;;;;0.99;86.50;98521.50;5049899;28;20036;-81
2023/01/26 04:50:03;;;;;;;25.40;11.18;;;;;;;0.97;86.57;98511.31;5050287;28;20029;-81
2023/01/26 04:52:29;;;;;;;24.20;10.48;;;;;;;1.07;86.31;98519.09;5049472;28;20033;-80
2023/01/26 04:54:54;;;;;;;26.65;11.80;;;;;;;1.17;86.29;98508.81;5049561;28;20764;-81
2023/01/26 04:57:22;;;;;;;25.10;10.55;;;;;;;1.28;85.88;98509.53;5050712;28;20128;-81
2023/01/26 04:59:47;;;;;;;20.63;9.52;;;;;;;1.33;85.47;98512.53;5049403;28;20056;-81
2023/01/26 05:02:13;;;;;;;24.02;10.38;;;;;;;1.27;84.79;98513.06;5049403;28;20477;-81
2023/01/26 05:04:38;;;;;;;25.00;10.20;;;;;;;1.38;84.71;98513.88;5031775;28;20032;-80
2023/01/26 05:07:04;;;;;;;23.10;10.48;;;;;;;1.44;84.31;98508.19;5015431;28;20654;-81
2023/01/26 05:09:29;;;;;;;24.58;10.25;;;;;;;1.51;84.13;98519.66;5049896;28;20037;-81
2023/01/26 05:12:32;;;;;;;25.75;10.52;;;;;;;1.60;83.97;98521.44;5049716;28;20112;-81
2023/01/26 05:14:40;;;;;;;25.42;10.57;;;;;;;1.46;83.16;98521.81;5048430;28;20037;-81
2023/01/26 05:17:05;;;;;;;23.48;10.40;;;;;;;1.36;83.68;98520.97;5049862;28;20671;-81
2023/01/26 05:19:31;;;;;;;24.52;10.82;;;;;;;1.05;84.62;98516.63;5046922;28;20612;-80
2023/01/26 05:21:56;;;;;;;28.98;11.27;;;;;;;1.09;85.26;98516.38;5048538;28;20029;-80
2023/01/26 05:24:22;;;;;;;24.38;11.10;;;;;;;1.06;85.85;98514.88;5032471;28;20033;-80
2023/01/26 05:27:19;;;;;;;22.77;10.50;;;;;;;1.19;85.79;98512.88;5047700;28;20033;-81
2023/01/26 05:29:33;;;;;;;26.02;10.77;;;;;;;1.36;85.73;98526.94;5047577;28;20036;-81
2023/01/26 05:31:58;;;;;;;24.35;10.90;;;;;;;1.48;85.51;98515.56;5049553;28;20063;-81
2023/01/26 05:34:24;;;;;;;22.10;10.23;;;;;;;1.54;84.80;98515.03;5049099;28;20111;-81
2023/01/26 05:36:49;;;;;;;25.25;11.27;;;;;;;1.58;84.21;98521.59;5048933;28;20116;-80
2023/01/26 05:39:15;;;;;;;22.65;9.65;;;;;;;1.58;83.80;98523.34;5048273;28;20041;-80
2023/01/26 05:41:40;;;;;;;24.08;10.85;;;;;;;1.51;83.80;98523.06;5048944;28;20163;-81
2023/01/26 05:44:07;;;;;;;27.17;11.63;;;;;;;1.38;83.83;98519.91;5049446;28;20036;-81
2023/01/26 05:46:32;;;;;;;23.77;10.35;;;;;;;1.38;84.16;98524.22;5049036;28;20037;-81
2023/01/26 05:48:58;;;;;;;25.15;10.20;;;;;;;1.36;84.43;98537.28;5048373;28;20508;-81
2023/01/26 05:51:23;;;;;;;27.90;10.57;;;;;;;1.32;85.19;98529.00;5049363;28;20048;-81
2023/01/26 05:53:48;;;;;;;22.08;9.45;;;;;;;1.27;85.40;98518.22;5048569;28;20131;-80
2023/01/26 05:56:14;;;;;;;22.77;10.55;;;;;;;1.23;85.98;98527.19;5047360;28;20060;-81
2023/01/26 05:58:39;;;;;;;24.38;10.38;;;;;;;1.28;85.86;98522.44;5048480;28;20872;-80
2023/01/26 06:01:05;;;;;;;21.27;9.77;;;;;;;1.12;85.60;98519.50;5047817;28;20373;-81
2023/01/26 06:03:30;;;;;;;27.58;10.60;;;;;;;1.16;86.16;98507.97;5048819;28;20374;-81
2023/01/26 06:05:56;;;;;;;27.50;10.45;;;;;;;1.32;86.32;98517.84;5031266;28;20024;-81
2023/01/26 06:08:21;;;;;;;24.40;10.25;;;;;;;1.29;85.59;98521.50;5048997;28;20402;-81
2023/01/26 06:10:47;;;;;;;22.63;9.70;;;;;;;1.46;85.69;98527.00;5030676;28;20104;-80
2023/01/26 06:13:15;;;;;;;25.20;11.10;;;;;;;1.54;85.36;98529.72;5048655;28;20068;-81
2023/01/26 06:15:41;;;;;;;24.50;9.55;;;;;;;1.55;84.44;98519.25;5047560;28;20060;-80
2023/01/26 06:18:06;;;;;;;24.52;10.52;;;;;;;1.48;84.50;98522.50;5048613;28;20108;-81
2023/01/26 06:20:32;;;;;;;23.55;9.73;;;;;;;1.49;84.49;98529.31;5044972;28;20114;-80
2023/01/26 06:23:00;;;;;;;21.52;9.85;;;;;;;1.43;84.31;98535.00;5047219;28;20384;-80
2023/01/26 06:25:26;;;;;;;24.05;10.57;;;;;;;1.36;84.64;98532.13;5045677;28;20116;-81
2023/01/26 06:27:57;;;;;;;27.73;10.07;;;;;;;1.41;85.22;98531.75;5048488;28;20046;-81
2023/01/26 06:30:22;;;;;;;22.85;9.57;;;;;;;1.22;85.19;98530.72;5047338;28;20044;-81
2023/01/26 06:32:48;;;;;;;27.83;9.85;;;;;;;0.82;86.19;98525.47;5047956;28;20033;-80
2023/01/26 06:35:13;;;;;;;23.83;8.82;;;;;;;0.79;86.99;98534.31;5029702;28;20843;-80
2023/01/26 06:37:39;;;;;;;24.98;10.77;;;;;;;0.78;87.75;98532.69;5047583;28;20032;-80
2023/01/26 06:40:05;;;;;;;26.75;10.70;;;;;;;0.83;88.05;98531.47;5047452;28;20048;-80
2023/01/26 06:42:30;;;;;;;21.85;9.90;;;;;;;0.98;88.22;98537.94;5047664;28;20429;-80
2023/01/26 06:44:57;;;;;;;26.05;9.75;;;;;;;1.07;87.82;98532.81;5047715;28;20121;-80
2023/01/26 06:47:23;;;;;;;25.30;9.38;;;;;;;1.01;87.40;98522.19;5030016;28;20063;-80
2023/01/26 06:49:48;;;;;;;21.75;9.68;;;;;;;1.04;87.14;98516.78;5047944;28;20056;-80
2023/01/26 06:52:27;;;;;;;20.15;9.38;;;;;;;0.84;87.54;98520.19;5029577;28;20045;-80
2023/01/26 06:54:53;;;;;;;22.70;8.82;;;;;;;1.02;87.76;98518.66;5048243;28;20945;-80
2023/01/26 06:57:18;;;;;;;24.83;10.02;;;;;;;1.12;88.05;98519.50;5039282;28;20397;-80
2023/01/26 06:59:44;;;;;;;22.58;9.85;;;;;;;1.23;87.72;98521.19;5044338;28;20052;-80
2023/01/26 07:02:17;;;;;;;18.05;8.43;;;;;;;1.28;87.36;98524.22;5046904;28;20040;-80
2023/01/26 07:04:43;;;;;;;23.40;10.10;;;;;;;1.14;86.87;98519.38;5045083;28;20060;-80
2023/01/26 07:07:09;;;;;;;23.88;10.63;;;;;;;1.16;87.01;98531.22;5047388;28;20033;-80
2023/01/26 07:09:34;;;;;;;24.75;9.70;;;;;;;1.06;86.94;98525.19;5045288;28;20055;-80
2023/01/26 07:12:00;;;;;;;24.83;10.32;;;;;;;0.95;87.23;98517.53;5046258;28;20029;-79
2023/01/26 07:14:25;;;;;;;25.10;10.40;;;;;;;1.05;87.60;98518.41;5047433;28;20064;-80
2023/01/26 07:16:51;;;;;;;24.15;10.20;;;;;;;1.20;87.32;98524.03;5046875;28;20033;-79
2023/01/26 07:19:16;;;;;;;23.40;10.18;;;;;;;1.20;86.56;98526.63;5043645;28;20627;-80
2023/01/26 07:21:42;;;;;;;25.95;10.68;;;;;;;1.07;86.90;98522.47;5043998;28;20466;-80
2023/01/26 07:24:08;;;;;;;24.45;9.70;;;;;;;1.13;87.30;98515.97;5046315;28;20060;-80
2023/01/26 07:26:34;;;;;;;22.50;9.50;;;;;;;1.20;86.80;98527.47;5045609;28;20032;-80
2023/01/26 07:28:59;;;;;;;22.70;9.48;;;;;;;1.06;86.65;98522.63;5047542;28;20090;-80
2023/01/26 07:31:24;;;;;;;25.83;10.52;;;;;;;1.17;87.12;98517.38;5046895;28;20125;-80
2023/01/26 07:33:50;;;;;;;24.52;9.63;;;;;;;1.17;86.65;98507.03;5028464;28;20484;-80
2023/01/26 07:36:15;;;;;;;23.35;10.43;;;;;;;1.33;86.84;98519.47;5046624;28;20037;-80
2023/01/26 07:38:41;;;;;;;21.52;9.13;;;;;;;1.34;86.16;98523.69;5047076;28;20128;-80
2023/01/26 07:41:10;;;;;;;19.95;8.63;;;;;;;1.34;86.06;98524.50;5046463;28;20029;-80
2023/01/26 07:43:37;;;;;;;18.20;6.85;;;;;;;0.97;85.47;98515.66;5045482;28;20555;-80
2023/01/26 07:46:04;;;;;;;20.50;8.77;;;;;;;0.74;86.10;98508.06;5045681;28;20040;-80
2023/01/26 07:48:30;;;;;;;19.33;8.40;;;;;;;0.79;86.79;98518.81;5045522;28;20068;-80
2023/01/26 07:51:02;;;;;;;22.13;9.15;;;;;;;0.85;87.11;98527.00;5045904;28;20446;-80
2023/01/26 07:53:29;;;;;;;24.67;9.77;;;;;;;0.98;87.57;98517.28;5049187;28;20029;-80
2023/01/26 07:56:12;;;;;;;23.98;10.23;;;;;;;1.01;87.41;98517.00;5050182;28;20388;-80
2023/01/26 07:58:39;;;;;;;23.17;9.48;;;;;;;0.83;87.43;98514.19;5045175;28;20028;-80
2023/01/26 08:01:12;;;;;;;17.95;7.88;;;;;;;0.78;87.66;98513.75;5047958;28;20068;-80
2023/01/26 08:03:38;;;;;;;20.70;8.82;;;;;;;0.72;88.42;98520.28;5049187;28;20100;-80
2023/01/26 08:06:04;;;;;;;25.00;8.77;;;;;;;0.77;89.00;98505.19;5050501;28;20040;-80
2023/01/26 08:08:30;;;;;;;23.50;9.68;;;;;;;0.89;89.03;98520.63;5050858;28;20132;-80
2023/01/26 08:11:00;;;;;;;19.52;7.70;;;;;;;0.77;88.51;98523.28;5050301;28;20104;-80
2023/01/26 08:13:27;;;;;;;19.73;8.25;;;;;;;0.69;88.46;98517.94;5050395;28;20055;-80
2023/01/26 08:15:53;;;;;;;17.73;7.82;;;;;;;0.86;89.36;98518.31;5050763;28;20120;-80
2023/01/26 08:18:19;;;;;;;21.42;8.70;;;;;;;1.03;89.10;98517.72;5049239;28;20404;-80
2023/01/26 08:20:53;;;;;;;23.77;9.63;;;;;;;1.04;88.15;98512.41;5046740;28;20033;-80
2023/01/26 08:23:19;;;;;;;22.10;9.10;;;;;;;1.04;87.31;98519.34;5027295;28;20106;-80
2023/01/26 08:25:45;;;;;;;20.27;8.27;;;;;;;1.21;87.83;98518.75;5049049;28;20528;-80
2023/01/26 08:28:11;;;;;;;18.60;8.95;;;;;;;1.36;87.26;98520.97;5048425;28;20031;-80
2023/01/26 08:30:37;;;;;;;16.25;6.95;;;;;;;1.02;86.45;98521.22;5031230;28;20029;-80
2023/01/26 08:33:04;;;;;;;18.55;7.03;;;;;;;1.01;86.55;98511.84;5045782;28;20033;-80
2023/01/26 08:35:33;;;;;;;17.73;7.90;;;;;;;0.95;86.37;98504.63;5048217;28;20663;-80
2023/01/26 08:37:59;;;;;;;14.23;6.78;;;;;;;1.18;86.88;98519.00;5047656;28;20033;-80
2023/01/26 08:40:25;;;;;;;18.40;6.38;;;;;;;1.33;86.76;98522.88;5048701;28;20408;-80
2023/01/26 08:42:51;;;;;;;17.15;6.85;;;;;;;1.21;85.97;98517.94;5048662;28;20108;-80
2023/01/26 08:45:17;;;;;;;14.65;6.50;;;;;;;0.96;85.98;98514.00;5048433;28;20033;-80
2023/01/26 08:47:44;;;;;;;16.33;6.85;;;;;;;1.06;86.80;98526.00;5049403;28;20044;-81
2023/01/26 08:50:10;;;;;;;18.25;7.15;;;;;;;1.14;86.66;98517.63;5049550;28;20029;-80
2023/01/26 08:52:35;;;;;;;17.90;6.72;;;;;;;1.22;86.50;98524.72;5050030;28;20072;-80
2023/01/26 08:55:03;;;;;;;15.90;6.05;;;;;;;1.29;86.18;98511.16;5048812;28;20118;-80
2023/01/26 08:57:29;;;;;;;14.95;6.55;;;;;;;1.26;85.70;98516.59;5048508;28;20095;-80
2023/01/26 08:59:54;;;;;;;14.07;6.57;;;;;;;1.16;85.25;98517.50;5046102;28;20037;-80
2023/01/26 09:02:20;;;;;;;17.30;6.72;;;;;;;1.08;85.08;98513.00;5030038;28;20040;-80
2023/01/26 09:04:45;;;;;;;16.40;7.00;;;;;;;0.96;85.66;98508.81;5048646;28;20396;-80
2023/01/26 09:07:11;;;;;;;12.93;5.63;;;;;;;0.94;85.58;98505.56;5049549;28;20041;-80
2023/01/26 09:09:36;;;;;;;13.77;6.20;;;;;;;1.16;85.92;98510.56;5048936;28;20040;-80
2023/01/26 09:12:02;;;;;;;15.82;6.53;;;;;;;1.35;85.86;98512.41;5049233;28;20112;-80
2023/01/26 09:14:27;;;;;;;13.02;5.97;;;;;;;1.46;85.17;98503.72;5049960;28;20036;-80
2023/01/26 09:16:53;;;;;;;13.60;6.10;;;;;;;1.52;83.94;98513.53;5048705;28;20645;-80
2023/01/26 09:19:19;;;;;;;14.98;5.63;;;;;;;1.38;83.67;98521.66;5045468;28;20025;-80
2023/01/26 09:21:44;;;;;;;13.32;5.65;;;;;;;1.40;84.07;98524.94;5049091;28;20087;-80
2023/01/26 09:24:10;;;;;;;13.18;5.20;;;;;;;1.43;83.92;98527.25;5048888;28;20072;-80
2023/01/26 09:26:35;;;;;;;16.67;6.28;;;;;;;1.17;83.62;98498.47;5049132;28;20083;-80
2023/01/26 09:29:02;;;;;;;13.20;6.18;;;;;;;1.49;84.83;98526.72;5048144;28;20111;-80
2023/01/26 09:31:28;;;;;;;13.88;6.20;;;;;;;1.65;84.79;98537.38;5030624;28;20255;-80
2023/01/26 09:33:53;;;;;;;14.25;6.20;;;;;;;1.64;83.97;98525.41;5048799;28;20111;-81
2023/01/26 09:36:19;;;;;;;13.30;6.25;;;;;;;1.65;83.75;98536.56;5047830;28;20029;-80
2023/01/26 09:38:44;;;;;;;11.77;5.28;;;;;;;1.64;83.05;98530.59;5048109;28;20039;-80
2023/01/26 09:42:03;;;;;;;12.10;5.80;;;;;;;1.55;82.80;98536.53;5047821;28;20095;-80
2023/01/26 09:44:38;;;;;;;13.20;5.63;;;;;;;1.67;83.76;98540.66;5047658;28;20703;-81
2023/01/26 09:47:41;;;;;;;13.90;6.10;;;;;;;1.74;83.13;98536.59;5047968;28;20037;-81
2023/01/26 09:50:20;;;;;;;12.88;5.88;;;;;;;1.73;82.86;98529.78;5048365;28;20115;-80
2023/01/26 09:52:57;;;;;;;11.65;5.32;;;;;;;1.65;82.22;98532.22;5047196;28;20033;-80
2023/01/26 09:55:24;;;;;;;13.55;6.55;;;;;;;1.37;82.85;98527.78;5046687;28;20384;-80
2023/01/26 09:57:55;;;;;;;18.02;7.30;;;;;;;1.38;83.67;98529.41;5030537;28;20033;-81
2023/01/26 10:00:31;;;;;;;14.50;6.80;;;;;;;1.50;84.03;98533.53;5045311;28;20045;-80
2023/01/26 10:03:09;;;;;;;15.75;6.95;;;;;;;1.48;83.77;98523.31;5046370;28;20787;-80
2023/01/26 10:05:47;;;;;;;14.13;6.90;;;;;;;1.34;83.73;98527.09;5047849;28;20460;-80
2023/01/26 10:08:18;;;;;;;18.75;7.93;;;;;;;1.27;84.13;98531.16;5046022;28;20040;-80
2023/01/26 10:10:53;;;;;;;18.40;8.40;;;;;;;0.92;82.65;98534.09;5046999;28;20068;-80
2023/01/26 10:13:21;;;;;;;22.05;8.70;;;;;;;0.85;83.00;98529.59;5048224;28;20468;-80
2023/01/26 10:15:56;;;;;;;20.77;8.55;;;;;;;0.87;83.64;98528.50;5046612;28;20060;-80
2023/01/26 10:18:35;;;;;;;17.60;6.97;;;;;;;0.95;84.01;98526.09;5044995;28;20496;-80
2023/01/26 10:21:06;;;;;;;23.48;9.82;;;;;;;0.82;84.17;98527.25;5044735;28;20041;-80
2023/01/26 10:23:34;;;;;;;22.17;9.43;;;;;;;0.85;83.95;98520.09;5046393;28;20595;-80
2023/01/26 10:26:31;;;;;;;22.30;9.02;;;;;;;1.06;83.72;98517.44;5030276;28;20086;-80
2023/01/26 10:28:57;;;;;;;20.55;9.95;;;;;;;1.27;83.32;98518.22;5046386;28;20472;-80
2023/01/26 10:31:28;;;;;;;20.42;10.07;;;;;;;1.24;82.12;98509.91;5046851;28;20091;-81
2023/01/26 10:34:02;;;;;;;24.45;9.65;;;;;;;1.15;81.63;98514.09;5047037;28;20218;-80
2023/01/26 10:36:31;;;;;;;24.70;10.32;;;;;;;1.02;81.98;98511.75;5048103;28;20068;-80
2023/01/26 10:39:10;;;;;;;21.33;9.32;;;;;;;1.06;83.37;98507.13;5028746;28;20028;-80
2023/01/26 10:41:38;;;;;;;21.75;9.73;;;;;;;1.15;82.64;98514.09;5047585;28;20128;-80
2023/01/26 10:44:24;;;;;;;24.70;11.38;;;;;;;0.94;82.21;98510.72;5047796;28;20464;-80
2023/01/26 10:47:20;;;;;;;25.17;10.23;;;;;;;0.90;82.52;98502.44;5046531;28;20041;-81
2023/01/26 10:49:46;;;;;;;26.55;10.68;;;;;;;0.87;82.51;98499.28;5038834;28;20037;-81
2023/01/26 10:52:23;;;;;;;24.30;11.18;;;;;;;0.79;82.49;98499.94;5047578;28;20045;-81
2023/01/26 10:55:11;;;;;;;27.38;11.50;;;;;;;0.73;82.63;98503.84;5047221;28;20501;-80
2023/01/26 10:57:40;;;;;;;26.48;11.57;;;;;;;0.70;83.59;98498.09;5047765;28;20037;-80
2023/01/26 11:00:18;;;;;;;24.33;10.02;;;;;;;0.85;83.12;98496.84;5045618;28;20056;-80
2023/01/26 11:02:53;;;;;;;26.13;10.43;;;;;;;0.90;82.56;98489.53;5044236;28;20409;-80
2023/01/26 11:05:25;;;;;;;26.00;12.00;;;;;;;0.94;82.75;98492.66;5029219;28;20476;-81
2023/01/26 11:08:01;;;;;;;25.13;10.35;;;;;;;0.89;82.33;98493.03;5047106;28;20029;-80
2023/01/26 11:10:49;;;;;;;25.50;12.18;;;;;;;0.77;82.06;98487.13;5047180;28;20033;-80
2023/01/26 11:13:19;;;;;;;25.25;11.48;;;;;;;0.52;82.75;98484.94;5044765;28;21306;-81
2023/01/26 11:16:08;;;;;;;21.42;9.35;;;;;;;0.79;83.33;98485.25;5044933;28;20055;-80
2023/01/26 11:18:47;;;;;;;28.58;11.70;;;;;;;0.92;83.46;98484.22;5046795;28;20033;-81
2023/01/26 11:21:30;;;;;;;28.50;10.70;;;;;;;1.22;83.92;98475.63;5044713;28;20040;-81
2023/01/26 11:24:25;;;;;;;23.58;9.95;;;;;;;1.41;82.84;98467.13;5045078;28;20029;-81
2023/01/26 11:27:46;;;;;;;25.15;10.70;;;;;;;1.50;81.28;98472.31;5045312;28;20032;-81
2023/01/26 11:30:50;;;;;;;26.95;11.07;;;;;;;1.54;80.05;98467.69;5032731;28;20036;-80
2023/01/26 11:33:42;;;;;;;22.08;9.57;;;;;;;1.56;80.51;98465.78;5050707;28;20064;-80
2023/01/26 11:36:20;;;;;;;23.10;9.63;;;;;;;1.58;80.17;98450.97;5050540;28;20090;-80
2023/01/26 11:39:23;;;;;;;19.67;8.80;;;;;;;1.56;79.23;98455.44;5050663;28;20033;-80
2023/01/26 11:42:18;;;;;;;24.20;10.77;;;;;;;1.26;79.37;98452.00;5047474;28;20536;-80
2023/01/26 11:44:50;;;;;;;28.70;11.43;;;;;;;1.03;80.33;98445.41;5047572;28;20048;-80
2023/01/26 11:51:36;;;;;;;23.35;9.77;;;;;;;0.89;80.53;98441.38;4964396;28;20060;-80
2023/01/26 11:54:19;;;;;;;20.80;10.20;;;;;;;0.92;80.78;98445.50;5046704;28;20115;-80
2023/01/26 11:57:12;;;;;;;22.88;9.50;;;;;;;0.96;81.24;98441.66;5047138;28;20045;-80
2023/01/26 11:59:40;;;;;;;20.77;9.02;;;;;;;0.85;81.65;98441.78;4995350;28;20512;-80
2023/01/26 12:02:33;;;;;;;23.98;11.80;;;;;;;0.83;82.14;98434.16;5047626;28;20060;-80
2023/01/26 12:05:12;;;;;;;21.05;9.30;;;;;;;1.17;82.48;98434.69;5047539;28;20037;-80
2023/01/26 12:08:18;;;;;;;25.05;11.10;;;;;;;1.37;81.54;98430.38;5046556;28;20048;-80
2023/01/26 12:10:52;;;;;;;20.63;8.85;;;;;;;1.53;81.09;98430.69;5041110;28;20037;-80
2023/01/26 12:13:34;;;;;;;20.15;9.13;;;;;;;1.44;79.43;98422.91;5048621;28;20033;-80
2023/01/26 12:16:15;;;;;;;21.27;8.85;;;;;;;1.43;79.80;98416.09;5046311;28;20040;-80
2023/01/26 12:19:00;;;;;;;20.67;9.05;;;;;;;1.55;80.24;98425.38;5027737;28;20075;-80
2023/01/26 12:21:35;;;;;;;20.30;9.65;;;;;;;1.57;79.63;98420.91;5047667;28;20040;-80
2023/01/26 12:24:04;;;;;;;22.67;9.65;;;;;;;1.66;80.25;98417.50;5047107;28;20798;-80
2023/01/26 12:26:44;;;;;;;23.48;10.77;;;;;;;1.45;79.67;98415.03;5046378;28;20044;-80
2023/01/26 12:29:49;;;;;;;21.27;8.82;;;;;;;1.29;79.68;98402.63;5046365;28;20068;-80
2023/01/26 12:32:15;;;;;;;20.58;9.02;;;;;;;1.11;79.16;98396.47;5046758;28;20044;-80
2023/01/26 12:34:41;;;;;;;22.98;10.27;;;;;;;1.19;79.55;98394.03;5048630;28;20037;-80
2023/01/26 12:37:46;;;;;;;22.80;9.93;;;;;;;1.47;80.69;98402.78;5048801;28;20033;-80
2023/01/26 12:40:25;;;;;;;27.27;10.50;;;;;;;1.28;79.18;98384.69;5029740;28;20496;-80